Terminal Aerodrome Forecast
Issued by NWS Shreveport, LA

Home | Current Version | Previous Version | Text Only | Print | Product List | Glossary On
Versions: 1 2 3 4 5 6 7 8 9 10 11 12 13 14 15 16 17 18 19 20 21 22 23
000
FTUS44 KSHV 301740
TAFLFK
TAF
KLFK 301740Z 3018/3118 VRB05KT P6SM BKN250
     FM302100 32007KT P6SM VCTS BKN035CB
     FM310100 36006KT P6SM BKN250
     FM310600 33004KT P6SM OVC015
      TEMPO 3109/3112 3SM BR BKN008
     FM311500 34008KT P6SM SCT250=

USA.gov is the U.S. government's official web portal to all federal, state and local government web resources and services.